createdAt,value
2022-11-18T00:01:11.732Z,77.61
2022-11-18T00:03:38.787Z,77.57
2022-11-18T00:06:05.918Z,81.34
2022-11-18T00:08:32.561Z,78.12
2022-11-18T00:10:59.138Z,77.54
2022-11-18T00:13:44.367Z,78.36
2022-11-18T00:16:12.764Z,78.49
2022-11-18T00:18:39.327Z,78.84
2022-11-18T00:21:10.495Z,77.92
2022-11-18T00:23:37.750Z,79.08
2022-11-18T00:26:05.986Z,78.88
2022-11-18T00:28:33.114Z,75.98
2022-11-18T00:31:13.714Z,78.84
2022-11-18T00:33:40.940Z,78.44
2022-11-18T00:36:09.826Z,78.46
2022-11-18T00:38:36.280Z,77.40
2022-11-18T00:41:07.981Z,76.94
2022-11-18T00:43:35.174Z,78.01
2022-11-18T00:46:02.126Z,77.58
2022-11-18T00:48:28.750Z,77.41
2022-11-18T00:50:58.126Z,77.61
2022-11-18T00:53:26.275Z,79.06
2022-11-18T00:55:53.262Z,78.87
2022-11-18T00:58:19.695Z,76.83
2022-11-18T01:00:49.797Z,77.48
2022-11-18T01:03:16.291Z,76.13
2022-11-18T01:05:42.873Z,76.04
2022-11-18T01:08:11.373Z,77.05
2022-11-18T01:10:38.801Z,78.03
2022-11-18T01:13:21.420Z,77.53
2022-11-18T01:15:56.000Z,77.11
2022-11-18T01:18:25.249Z,77.27
2022-11-18T01:20:51.974Z,79.28
2022-11-18T01:23:19.757Z,77.85
2022-11-18T01:25:48.967Z,78.68
2022-11-18T01:28:22.011Z,78.91
2022-11-18T01:30:49.966Z,77.63
2022-11-18T01:33:16.376Z,78.16
2022-11-18T01:35:43.648Z,77.24
2022-11-18T01:38:11.760Z,78.47
2022-11-18T01:40:38.712Z,80.21
2022-11-18T01:43:17.856Z,81.20
2022-11-18T01:45:46.495Z,79.48
2022-11-18T01:48:23.908Z,78.79
2022-11-18T01:51:02.299Z,80.43
2022-11-18T01:53:34.584Z,78.99
2022-11-18T01:56:12.347Z,80.92
2022-11-18T01:58:49.567Z,79.42
2022-11-18T02:01:16.111Z,80.18
2022-11-18T02:03:43.344Z,80.64
2022-11-18T02:06:10.475Z,80.16
2022-11-18T02:08:37.638Z,80.21
2022-11-18T02:11:05.152Z,79.35
2022-11-18T02:13:32.461Z,80.05
2022-11-18T02:16:15.718Z,80.01
2022-11-18T02:18:55.205Z,79.54
2022-11-18T02:21:24.137Z,78.33
2022-11-18T02:24:09.343Z,79.16
2022-11-18T02:26:54.090Z,79.31
2022-11-18T02:29:39.906Z,78.74
2022-11-18T02:32:19.530Z,79.95
2022-11-18T02:35:07.129Z,80.46
2022-11-18T02:37:37.565Z,77.73
2022-11-18T02:40:11.842Z,79.41
2022-11-18T02:42:39.213Z,78.34
2022-11-18T02:45:08.206Z,79.00
2022-11-18T02:47:36.537Z,78.93
2022-11-18T02:50:09.353Z,79.20
2022-11-18T02:52:37.586Z,78.68
2022-11-18T02:55:07.582Z,79.66
2022-11-18T02:57:34.443Z,80.25
2022-11-18T03:00:00.873Z,79.07
2022-11-18T03:02:27.448Z,78.58
2022-11-18T03:04:56.488Z,78.23
2022-11-18T03:07:28.551Z,77.05
2022-11-18T03:09:55.292Z,78.05
2022-11-18T03:12:41.215Z,78.41
2022-11-18T03:15:14.590Z,78.43
2022-11-18T03:18:29.020Z,77.92
2022-11-18T03:21:17.715Z,78.37
2022-11-18T03:23:51.473Z,78.08
2022-11-18T03:26:21.319Z,78.33
2022-11-18T03:29:00.482Z,77.84
2022-11-18T03:31:35.698Z,77.57
2022-11-18T03:34:15.151Z,77.98
2022-11-18T03:36:49.991Z,77.71
2022-11-18T03:39:19.968Z,77.78
2022-11-18T03:41:55.532Z,77.05
2022-11-18T03:44:27.390Z,77.67
2022-11-18T03:46:59.612Z,76.91
2022-11-18T03:49:37.739Z,78.64
2022-11-18T03:52:10.273Z,76.70
2022-11-18T03:54:37.939Z,76.66
2022-11-18T03:57:09.687Z,77.41
2022-11-18T03:59:45.730Z,76.56
2022-11-18T04:02:15.470Z,76.89
2022-11-18T04:04:43.102Z,77.91
2022-11-18T04:07:22.801Z,76.17
2022-11-18T04:09:58.096Z,76.29
2022-11-18T04:12:25.742Z,77.30
2022-11-18T04:14:55.461Z,76.96
2022-11-18T04:17:24.126Z,76.80
2022-11-18T04:19:50.593Z,77.58
2022-11-18T04:22:18.055Z,77.26
2022-11-18T04:24:44.635Z,75.29
2022-11-18T04:27:11.326Z,77.34
2022-11-18T04:29:37.836Z,77.16
2022-11-18T04:32:05.048Z,77.62
2022-11-18T04:34:31.683Z,77.70
2022-11-18T04:36:58.906Z,75.69
2022-11-18T04:39:25.479Z,78.09
2022-11-18T04:41:58.040Z,76.43
2022-11-18T04:44:42.775Z,77.14
2022-11-18T04:47:09.417Z,75.94
2022-11-18T04:49:36.236Z,75.31
2022-11-18T05:02:12.129Z,77.32
2022-11-18T05:07:45.728Z,77.11
2022-11-18T05:10:12.262Z,75.90
2022-11-18T05:12:51.031Z,75.52
2022-11-18T05:15:18.767Z,74.03
2022-11-18T05:17:45.635Z,74.81
2022-11-18T05:20:12.938Z,75.32
2022-11-18T05:22:39.964Z,74.10
2022-11-18T05:25:07.362Z,75.50
2022-11-18T05:27:34.220Z,74.42
2022-11-18T05:30:00.700Z,75.47
2022-11-18T05:32:27.133Z,74.49
2022-11-18T05:34:53.636Z,74.78
2022-11-18T05:37:20.097Z,74.41
2022-11-18T05:39:46.543Z,75.92
2022-11-18T05:42:31.612Z,75.63
2022-11-18T05:44:58.869Z,73.24
2022-11-18T05:47:26.167Z,74.12
2022-11-18T05:49:52.618Z,74.87
2022-11-18T05:52:19.055Z,74.28
2022-11-18T05:54:49.247Z,75.17
2022-11-18T05:57:15.672Z,74.38
2022-11-18T05:59:42.133Z,73.46
2022-11-18T06:02:14.883Z,72.93
2022-11-18T06:04:56.347Z,72.88
2022-11-18T06:07:26.368Z,71.89
2022-11-18T06:09:59.709Z,71.08
2022-11-18T06:12:30.556Z,71.45
2022-11-18T06:15:03.965Z,70.81
2022-11-18T06:17:42.173Z,70.38
2022-11-18T06:20:09.468Z,69.57
2022-11-18T06:22:35.926Z,69.10
2022-11-18T06:25:02.850Z,69.38
2022-11-18T06:27:30.117Z,68.56
2022-11-18T06:29:56.612Z,67.89
2022-11-18T06:32:23.063Z,68.46
2022-11-18T06:34:49.529Z,66.63
2022-11-18T06:37:17.848Z,66.46
2022-11-18T06:39:44.422Z,66.96
2022-11-18T06:42:11.011Z,66.28
2022-11-18T06:44:37.571Z,65.05
2022-11-18T06:47:04.626Z,65.54
2022-11-18T06:49:31.082Z,64.79
2022-11-18T06:51:57.552Z,65.65
2022-11-18T06:54:24.108Z,65.50
2022-11-18T06:56:50.620Z,66.19
2022-11-18T06:59:23.460Z,65.98
2022-11-18T07:01:50.519Z,64.95
2022-11-18T07:04:16.983Z,65.62
2022-11-18T07:06:43.442Z,66.69
2022-11-18T07:09:09.896Z,65.64
2022-11-18T07:11:38.246Z,65.62
2022-11-18T07:14:04.752Z,66.80
2022-11-18T07:16:31.232Z,66.11
2022-11-18T07:18:57.724Z,66.56
2022-11-18T07:21:26.526Z,67.08
2022-11-18T07:23:53.543Z,66.45
2022-11-18T07:26:20.499Z,66.53
2022-11-18T07:28:46.978Z,65.24
2022-11-18T07:31:15.513Z,66.86
2022-11-18T07:33:43.458Z,66.56
2022-11-18T07:36:14.779Z,66.52
2022-11-18T07:38:41.462Z,66.18
2022-11-18T07:41:10.382Z,67.22
2022-11-18T07:43:37.646Z,66.30
2022-11-18T07:46:25.301Z,65.88
2022-11-18T07:48:54.249Z,64.70
2022-11-18T07:51:22.935Z,64.61
2022-11-18T07:53:49.497Z,66.54
2022-11-18T07:56:16.417Z,66.02
2022-11-18T07:58:43.091Z,64.82
2022-11-18T08:01:16.833Z,65.55
2022-11-18T08:03:43.745Z,65.17
2022-11-18T08:06:11.382Z,65.52
2022-11-18T08:08:38.330Z,64.51
2022-11-18T08:11:07.138Z,64.21
2022-11-18T08:13:34.190Z,63.87
2022-11-18T08:16:00.783Z,64.87
2022-11-18T08:18:28.876Z,64.91
2022-11-18T08:20:55.700Z,63.55
2022-11-18T08:23:23.442Z,64.65
2022-11-18T08:25:52.524Z,63.83
2022-11-18T08:28:19.174Z,63.74
2022-11-18T08:30:45.681Z,63.49
2022-11-18T08:33:12.214Z,63.15
2022-11-18T08:35:38.655Z,62.81
2022-11-18T08:38:05.135Z,62.74
2022-11-18T08:40:31.632Z,62.21
2022-11-18T08:42:58.074Z,61.09
2022-11-18T08:45:24.591Z,61.38
2022-11-18T08:47:51.033Z,60.76
2022-11-18T08:50:17.577Z,60.11
2022-11-18T08:52:44.134Z,61.05
2022-11-18T08:55:10.567Z,60.55
2022-11-18T08:57:37.110Z,60.61
2022-11-18T09:00:05.379Z,60.98
2022-11-18T09:02:31.898Z,60.13
2022-11-18T09:04:58.357Z,60.02
2022-11-18T09:07:24.870Z,59.45
2022-11-18T09:09:51.494Z,59.73
2022-11-18T09:12:17.987Z,60.66
2022-11-18T09:17:31.555Z,59.45
2022-11-18T09:19:57.988Z,59.96
2022-11-18T09:22:24.495Z,58.32
2022-11-18T09:24:51.395Z,59.07
2022-11-18T09:27:18.163Z,58.66
2022-11-18T09:29:45.306Z,58.57
2022-11-18T09:32:12.010Z,58.51
2022-11-18T09:34:38.494Z,59.64
2022-11-18T09:37:06.657Z,59.56
2022-11-18T09:39:37.361Z,59.53
2022-11-18T09:42:33.136Z,59.80
2022-11-18T09:45:02.588Z,58.58
2022-11-18T09:47:30.388Z,57.78
2022-11-18T09:50:27.196Z,58.18
2022-11-18T09:53:04.670Z,58.44
2022-11-18T09:55:31.749Z,57.82
2022-11-18T09:57:59.229Z,58.05
2022-11-18T10:00:28.114Z,57.89
2022-11-18T10:03:01.669Z,56.80
2022-11-18T10:05:33.125Z,57.48
2022-11-18T10:08:08.625Z,57.25
2022-11-18T10:11:12.266Z,56.98
2022-11-18T10:13:48.779Z,57.02
2022-11-18T10:16:42.019Z,56.07
2022-11-18T10:19:30.395Z,55.80
2022-11-18T10:22:20.999Z,54.74
2022-11-18T10:24:51.343Z,54.30
2022-11-18T10:27:18.181Z,54.44
2022-11-18T10:29:46.444Z,54.54
2022-11-18T10:32:15.012Z,54.01
2022-11-18T10:34:54.962Z,54.26
2022-11-18T10:38:06.306Z,53.50
2022-11-18T10:40:28.097Z,53.70
2022-11-18T10:42:54.686Z,53.63
2022-11-18T10:45:21.084Z,53.31
2022-11-18T10:48:01.377Z,53.41
2022-11-18T10:50:30.344Z,52.99
2022-11-18T10:52:56.811Z,52.79
2022-11-18T10:55:24.927Z,52.68
2022-11-18T10:57:55.301Z,52.41
2022-11-18T11:00:34.095Z,52.54
2022-11-18T11:03:01.326Z,52.57
2022-11-18T11:05:28.115Z,52.85
2022-11-18T11:08:21.543Z,52.08
2022-11-18T11:10:56.926Z,51.34
2022-11-18T11:13:26.159Z,51.44
2022-11-18T11:15:55.555Z,51.62
2022-11-18T11:18:42.805Z,51.30
2022-11-18T11:21:20.547Z,51.01
2022-11-18T11:23:47.123Z,51.75
2022-11-18T11:29:53.493Z,52.28
2022-11-18T11:32:45.887Z,51.86
2022-11-18T11:35:18.366Z,51.71
2022-11-18T11:37:55.170Z,51.47
2022-11-18T11:40:25.871Z,51.18
2022-11-18T11:43:17.654Z,50.65
2022-11-18T11:45:48.109Z,50.47
2022-11-18T11:48:18.396Z,50.88
2022-11-18T11:51:01.969Z,50.24
2022-11-18T11:53:43.078Z,50.35
2022-11-18T11:56:23.458Z,50.51
2022-11-18T11:59:11.323Z,50.65
2022-11-18T12:01:43.887Z,49.86
2022-11-18T12:04:37.072Z,50.37
2022-11-18T12:07:06.349Z,50.27
2022-11-18T12:09:32.823Z,50.57
2022-11-18T12:12:32.768Z,49.44
2022-11-18T12:15:25.639Z,50.57
2022-11-18T12:18:25.596Z,49.62
2022-11-18T12:20:53.772Z,49.96
2022-11-18T12:23:26.437Z,49.58
2022-11-18T12:26:09.911Z,49.53
2022-11-18T12:28:37.772Z,49.67
2022-11-18T12:31:19.649Z,50.71
2022-11-18T12:34:19.615Z,50.50
2022-11-18T12:36:47.420Z,49.66
2022-11-18T12:39:26.104Z,50.05
2022-11-18T12:42:15.639Z,50.04
2022-11-18T12:44:43.375Z,50.19
2022-11-18T12:47:11.090Z,50.10
2022-11-18T12:49:37.511Z,49.99
2022-11-18T12:52:05.682Z,50.05
2022-11-18T12:54:41.209Z,49.78
2022-11-18T12:57:27.709Z,50.27
2022-11-18T12:59:54.528Z,50.00
2022-11-18T13:02:24.826Z,50.54
2022-11-18T13:05:06.408Z,50.53
2022-11-18T13:08:06.694Z,50.78
2022-11-18T13:10:35.680Z,50.94
2022-11-18T13:13:02.389Z,50.20
2022-11-18T13:15:47.528Z,49.99
2022-11-18T13:18:17.745Z,49.54
2022-11-18T13:20:54.659Z,50.74
2022-11-18T13:23:59.414Z,50.38
2022-11-18T13:26:29.620Z,50.62
2022-11-18T13:29:15.622Z,49.72
2022-11-18T13:31:52.406Z,50.19
2022-11-18T13:34:26.743Z,50.08
2022-11-18T13:36:54.596Z,49.64
2022-11-18T13:39:32.020Z,50.02
2022-11-18T13:42:14.726Z,50.30
2022-11-18T13:44:45.260Z,51.00
2022-11-18T13:47:36.339Z,50.57
2022-11-18T13:50:18.202Z,50.53
2022-11-18T13:52:49.448Z,51.23
2022-11-18T13:55:20.268Z,51.22
2022-11-18T13:57:52.476Z,50.94
2022-11-18T14:00:26.531Z,51.36
2022-11-18T14:03:19.043Z,51.04
2022-11-18T14:05:56.076Z,52.04
2022-11-18T14:08:30.684Z,50.94
2022-11-18T14:10:57.769Z,51.35
2022-11-18T14:13:28.888Z,51.40
2022-11-18T14:16:00.928Z,51.22
2022-11-18T14:18:37.589Z,51.72
2022-11-18T14:21:05.851Z,51.20
2022-11-18T14:23:34.491Z,52.30
2022-11-18T14:26:03.554Z,52.64
2022-11-18T14:28:38.040Z,53.02
2022-11-18T14:31:23.966Z,52.24
2022-11-18T14:34:18.565Z,52.18
2022-11-18T14:36:48.387Z,53.53
2022-11-18T14:39:27.365Z,52.74
2022-11-18T14:41:54.578Z,53.32
2022-11-18T14:44:22.167Z,53.46
2022-11-18T14:46:55.308Z,53.52
2022-11-18T14:49:24.091Z,53.70
2022-11-18T14:51:51.632Z,53.05
2022-11-18T14:54:25.901Z,53.47
2022-11-18T14:57:06.717Z,53.90
2022-11-18T14:59:33.194Z,53.52
2022-11-18T15:02:00.144Z,53.21
2022-11-18T15:04:26.990Z,53.62
2022-11-18T15:06:53.763Z,53.75
2022-11-18T15:09:20.390Z,53.81
2022-11-18T15:11:46.899Z,54.04
2022-11-18T15:14:13.354Z,53.47
2022-11-18T15:16:39.876Z,54.50
2022-11-18T15:19:07.270Z,54.28
2022-11-18T15:21:33.971Z,53.96
2022-11-18T15:24:00.657Z,54.42
2022-11-18T15:26:35.932Z,53.73
2022-11-18T15:29:02.375Z,53.73
2022-11-18T15:31:28.968Z,53.84
2022-11-18T15:33:55.916Z,53.62
2022-11-18T15:36:24.281Z,53.92
2022-11-18T15:38:51.889Z,54.99
2022-11-18T15:41:23.681Z,55.21
2022-11-18T15:43:50.699Z,54.47
2022-11-18T15:46:21.466Z,54.88
2022-11-18T15:48:51.378Z,54.34
2022-11-18T15:51:18.078Z,55.15
2022-11-18T15:53:44.653Z,55.13
2022-11-18T15:56:23.229Z,54.71
2022-11-18T15:59:10.411Z,54.67
2022-11-18T16:01:42.511Z,55.07
2022-11-18T16:04:10.778Z,55.02
2022-11-18T16:06:37.787Z,54.81
2022-11-18T16:09:05.366Z,55.51
2022-11-18T16:11:50.454Z,55.41
2022-11-18T16:14:19.441Z,54.52
2022-11-18T16:16:47.486Z,55.46
2022-11-18T16:19:16.926Z,55.67
2022-11-18T16:21:47.078Z,55.34
2022-11-18T16:24:17.633Z,56.69
2022-11-18T16:26:44.480Z,55.77
2022-11-18T16:29:11.966Z,55.40
2022-11-18T16:31:41.336Z,55.55
2022-11-18T16:34:08.674Z,56.61
2022-11-18T16:36:36.458Z,57.79
2022-11-18T16:39:08.126Z,57.12
2022-11-18T16:41:35.148Z,56.94
2022-11-18T16:44:03.703Z,57.26
2022-11-18T16:46:31.797Z,57.25
2022-11-18T16:48:58.781Z,56.41
2022-11-18T16:51:30.079Z,58.43
2022-11-18T16:56:33.041Z,58.15
2022-11-18T16:59:01.752Z,58.47
2022-11-18T17:01:29.846Z,58.08
2022-11-18T17:04:03.228Z,57.90
2022-11-18T17:06:31.052Z,58.90
2022-11-18T17:09:01.092Z,60.02
2022-11-18T17:11:27.780Z,59.74
2022-11-18T17:13:58.013Z,58.50
2022-11-18T17:16:24.818Z,59.24
2022-11-18T17:18:58.676Z,59.15
2022-11-18T17:21:26.675Z,60.29
2022-11-18T17:23:53.850Z,59.54
2022-11-18T17:26:23.199Z,61.95
2022-11-18T17:28:50.168Z,60.70
2022-11-18T17:31:21.447Z,60.98
2022-11-18T17:33:53.580Z,60.73
2022-11-18T17:36:23.356Z,60.09
2022-11-18T17:38:52.294Z,62.51
2022-11-18T17:41:55.509Z,62.41
2022-11-18T17:44:25.514Z,61.16
2022-11-18T17:46:52.584Z,62.05
2022-11-18T17:49:19.501Z,61.53
2022-11-18T17:51:51.054Z,62.99
2022-11-18T17:54:21.855Z,61.07
2022-11-18T17:56:54.670Z,61.75
2022-11-18T17:59:24.683Z,61.45
2022-11-18T18:01:57.346Z,61.60
2022-11-18T18:04:29.261Z,62.26
2022-11-18T18:06:59.587Z,60.92
2022-11-18T18:09:31.143Z,62.45
2022-11-18T18:11:59.532Z,63.15
2022-11-18T18:14:25.995Z,63.93
2022-11-18T18:16:52.447Z,62.19
2022-11-18T18:19:20.750Z,62.59
2022-11-18T18:21:47.743Z,63.52
2022-11-18T18:24:17.264Z,62.82
2022-11-18T18:26:44.131Z,63.47
2022-11-18T18:29:12.031Z,63.25
2022-11-18T18:31:38.610Z,62.56
2022-11-18T18:34:05.443Z,63.54
2022-11-18T18:36:32.581Z,63.25
2022-11-18T18:38:59.555Z,62.94
2022-11-18T18:41:26.088Z,62.66
2022-11-18T18:43:52.710Z,63.13
2022-11-18T18:49:23.252Z,64.04
2022-11-18T18:51:50.212Z,63.58
2022-11-18T18:57:26.175Z,64.20
2022-11-18T19:08:24.523Z,64.11
2022-11-18T20:07:32.379Z,65.71
2022-11-18T20:29:57.195Z,66.12
2022-11-18T21:37:25.203Z,65.38
2022-11-18T23:08:42.208Z,68.22
2022-11-18T23:11:35.386Z,69.10
2022-11-18T23:14:05.863Z,68.40
2022-11-18T23:16:34.078Z,68.56
2022-11-18T23:19:02.619Z,66.93
2022-11-18T23:21:29.400Z,67.50
2022-11-18T23:23:55.846Z,68.00
2022-11-18T23:26:22.941Z,66.68
2022-11-18T23:28:49.520Z,67.13
2022-11-18T23:31:18.684Z,68.48
2022-11-18T23:33:45.457Z,68.65
2022-11-18T23:36:14.211Z,66.82
2022-11-18T23:38:40.979Z,67.38
2022-11-18T23:41:10.330Z,68.41
2022-11-18T23:43:37.327Z,70.47
2022-11-18T23:46:04.912Z,71.30
2022-11-18T23:48:33.459Z,72.58
2022-11-18T23:51:02.260Z,71.91
2022-11-18T23:53:30.370Z,71.38
2022-11-18T23:55:57.624Z,68.92
2022-11-18T23:58:24.297Z,67.89
